Time;durP1;ratioP1;P1;durP2;ratioP2;P2;SDS_P1;SDS_P2;PMS_P1;PMS_P2;Temp;Humidity;BMP_temperature;BMP_pressure;BME280_temperature;BME280_humidity;BME280_pressure;Samples;Min_cycle;Max_cycle;Signal;HPM_P1;HPM_P2
2022/05/16 05:57:18;;;;;;;5.43;4.40;;;18.80;99.90;;;;;;513758;26;20819;-88
2022/05/16 06:00:10;;;;;;;;;;;;;;;;;;;;;
2022/05/16 06:03:05;;;;;;;;;;;;;;;;;;;;;
2022/05/16 06:05:34;;;;;;;3.97;3.70;;;18.90;99.90;;;;;;4998994;28;20648;-86
2022/05/16 06:40:35;;;;;;;5.60;5.13;;;18.80;99.90;;;;;;4752493;29;20466;-87
2022/05/16 06:49:25;;;;;;;;;;;;;;;;;;;;;
2022/05/16 06:55:21;;;;;;;9.43;6.70;;;19.40;99.90;;;;;;4976464;28;20507;-87
2022/05/16 06:58:33;;;;;;;;;;;;;;;;;;;;;
2022/05/16 07:07:36;;;;;;;5.47;4.97;;;20.10;99.90;;;;;;4962561;28;20441;-85
2022/05/16 07:40:20;;;;;;;21.63;6.27;;;22.90;95.50;;;;;;4891274;29;20459;-86
2022/05/16 08:56:43;;;;;;;;;;;;;;;;;;;;;
2022/05/16 09:16:52;;;;;;;7.77;5.80;;;25.00;90.70;;;;;;4806911;29;20446;-86
2022/05/16 09:19:49;;;;;;;5.93;5.40;;;24.90;89.90;;;;;;4862703;29;20477;-85
2022/05/16 09:22:54;;;;;;;5.20;4.80;;;25.20;90.30;;;;;;4947039;29;20461;-86
2022/05/16 09:25:30;;;;;;;5.90;5.30;;;25.20;90.10;;;;;;4960496;28;20481;-86
2022/05/16 09:30:56;;;;;;;6.80;6.13;;;25.10;87.10;;;;;;4996944;28;20506;-85
2022/05/16 09:36:45;;;;;;;7.50;5.37;;;25.50;87.40;;;;;;4992424;28;20452;-86
2022/05/16 09:42:30;;;;;;;5.87;5.40;;;25.90;85.20;;;;;;4994842;28;20802;-85
2022/05/16 09:48:06;;;;;;;6.50;4.70;;;25.70;82.30;;;;;;4996538;28;20509;-86
2022/05/16 09:50:55;;;;;;;5.63;4.97;;;25.30;82.40;;;;;;4997412;28;20556;-85
2022/05/16 09:53:30;;;;;;;5.50;4.97;;;25.20;84.30;;;;;;4996959;28;21008;-85
2022/05/16 09:56:09;;;;;;;7.03;5.00;;;24.80;84.20;;;;;;4997296;28;20465;-85
2022/05/16 09:58:47;;;;;;;5.70;5.13;;;24.50;86.30;;;;;;4997357;28;20968;-85
2022/05/16 10:01:32;;;;;;;5.13;4.67;;;24.40;85.40;;;;;;4997065;28;20455;-85
2022/05/16 10:04:12;;;;;;;5.43;4.77;;;24.30;85.50;;;;;;4997204;28;20703;-85
2022/05/16 10:06:44;;;;;;;6.43;4.97;;;24.40;86.40;;;;;;4997787;28;20459;-85
2022/05/16 10:09:15;;;;;;;5.10;4.70;;;24.60;86.70;;;;;;4997238;28;20461;-85
2022/05/16 10:11:46;;;;;;;5.60;4.73;;;24.90;86.30;;;;;;4996723;28;20947;-85
2022/05/16 10:14:13;;;;;;;5.90;5.40;;;25.10;84.80;;;;;;4997494;28;20569;-85
2022/05/16 10:16:47;;;;;;;5.77;5.20;;;25.10;85.50;;;;;;5006184;28;20446;-85
2022/05/16 10:19:20;;;;;;;6.63;4.93;;;24.80;84.00;;;;;;4998192;28;20510;-85
2022/05/16 10:21:54;;;;;;;5.70;5.10;;;25.00;86.60;;;;;;4996703;28;20461;-85
2022/05/16 10:24:23;;;;;;;5.13;4.83;;;25.00;85.30;;;;;;4996798;28;20458;-85
2022/05/16 10:26:54;;;;;;;8.50;5.80;;;25.20;82.70;;;;;;4996947;28;20453;-85
2022/05/16 10:29:27;;;;;;;7.43;6.80;;;25.10;84.10;;;;;;4996746;28;20488;-85
2022/05/16 10:35:03;;;;;;;8.37;6.17;;;25.00;85.10;;;;;;4996639;28;20450;-85
2022/05/16 10:37:35;;;;;;;6.17;4.60;;;24.70;85.90;;;;;;4996848;28;20490;-85
2022/05/16 10:40:09;;;;;;;4.87;4.47;;;24.10;86.70;;;;;;4998455;28;20475;-85
2022/05/16 10:42:40;;;;;;;5.37;4.97;;;24.10;87.90;;;;;;5002608;28;20812;-85
2022/05/16 10:45:15;;;;;;;4.83;4.03;;;23.90;86.80;;;;;;4998120;28;20489;-85
2022/05/16 10:47:50;;;;;;;5.00;4.60;;;24.10;87.80;;;;;;4996353;28;20457;-85
2022/05/16 10:50:22;;;;;;;5.43;4.63;;;24.20;88.20;;;;;;4996125;28;20459;-85
2022/05/16 10:52:56;;;;;;;5.97;4.20;;;24.10;88.30;;;;;;4996478;28;20478;-85
2022/05/16 10:55:24;;;;;;;4.27;3.93;;;24.10;87.80;;;;;;4997752;28;20466;-85
2022/05/16 10:58:08;;;;;;;4.03;3.13;;;24.00;86.70;;;;;;5000432;28;20537;-85
2022/05/16 11:00:41;;;;;;;4.93;4.10;;;23.90;86.20;;;;;;4999773;28;20832;-85
2022/05/16 11:03:28;;;;;;;5.10;3.60;;;23.40;86.80;;;;;;5000292;28;20490;-85
2022/05/16 11:06:11;;;;;;;3.20;2.90;;;23.30;88.60;;;;;;5011348;28;20455;-86
2022/05/16 11:08:49;;;;;;;4.33;3.93;;;23.30;89.70;;;;;;5000000;28;20450;-85
2022/05/16 11:11:27;;;;;;;3.03;2.57;;;23.20;90.20;;;;;;4999758;28;20492;-85
2022/05/16 11:14:13;;;;;;;5.53;3.70;;;22.90;90.00;;;;;;4999976;28;20493;-85
2022/05/16 11:16:41;;;;;;;4.30;3.40;;;22.80;90.10;;;;;;5000128;28;20465;-86
2022/05/16 11:19:26;;;;;;;4.80;4.30;;;22.50;90.80;;;;;;4999879;28;20515;-85
2022/05/16 11:21:59;;;;;;;4.00;3.60;;;22.30;91.20;;;;;;5000221;28;20516;-86
2022/05/16 11:24:35;;;;;;;4.70;3.20;;;22.40;91.90;;;;;;4999445;28;20498;-86
2022/05/16 11:27:17;;;;;;;3.50;3.20;;;22.00;92.00;;;;;;5000245;28;20486;-86
2022/05/16 11:29:53;;;;;;;4.77;2.77;;;21.80;92.40;;;;;;5001383;28;20485;-85
2022/05/16 11:32:41;;;;;;;4.30;3.40;;;21.80;92.80;;;;;;5000247;28;20551;-86
2022/05/16 11:35:12;;;;;;;3.27;2.80;;;21.60;92.20;;;;;;5000788;28;20459;-86
2022/05/16 11:38:00;;;;;;;4.57;3.53;;;21.50;92.60;;;;;;4999992;28;20437;-86
2022/05/16 11:40:36;;;;;;;4.20;2.63;;;21.50;92.50;;;;;;5001749;28;20480;-86
2022/05/16 11:43:15;;;;;;;2.23;2.03;;;21.50;91.80;;;;;;5001268;28;20499;-86
2022/05/16 11:46:08;;;;;;;4.00;2.00;;;21.30;90.70;;;;;;5000136;28;21064;-86
2022/05/16 11:48:44;;;;;;;3.90;2.20;;;21.20;90.90;;;;;;5001381;28;20456;-85
2022/05/16 11:51:22;;;;;;;3.90;2.33;;;21.00;90.90;;;;;;5000436;28;20528;-85
2022/05/16 11:53:58;;;;;;;3.33;2.10;;;20.90;90.60;;;;;;5000810;28;20567;-85
2022/05/16 12:02:20;;;;;;;4.17;2.50;;;20.10;92.70;;;;;;4999464;28;20467;-85
2022/05/16 12:07:42;;;;;;;1.17;0.97;;;19.00;98.20;;;;;;4982974;28;20474;-84
2022/05/16 12:10:24;;;;;;;2.97;1.60;;;18.40;99.90;;;;;;5000063;28;20451;-85
2022/05/16 12:13:18;;;;;;;3.00;2.63;;;17.70;99.90;;;;;;5002381;28;20521;-86
2022/05/16 12:15:46;;;;;;;2.97;2.40;;;17.40;99.90;;;;;;5005301;28;20481;-87
2022/05/16 12:18:35;;;;;;;3.07;2.83;;;17.30;99.90;;;;;;5002792;28;20462;-86
2022/05/16 12:21:05;;;;;;;2.30;2.10;;;17.20;99.90;;;;;;5002336;28;20444;-88
2022/05/16 12:23:58;;;;;;;4.27;2.57;;;17.20;99.90;;;;;;5003339;28;20454;-85
2022/05/16 12:27:03;;;;;;;2.57;2.10;;;17.30;99.90;;;;;;4996440;28;20740;-86
2022/05/16 12:29:41;;;;;;;5.80;2.33;;;17.10;99.90;;;;;;5004115;28;20446;-86
2022/05/16 12:32:24;;;;;;;2.60;2.40;;;17.00;99.90;;;;;;5004062;28;20468;-87
2022/05/16 12:34:51;;;;;;;2.47;2.30;;;17.00;99.90;;;;;;5002035;28;20508;-86
2022/05/16 12:37:20;;;;;;;5.90;2.90;;;17.00;99.90;;;;;;5000292;28;20466;-86
2022/05/16 12:40:07;;;;;;;4.27;2.63;;;17.00;99.90;;;;;;5000402;28;20541;-86
2022/05/16 12:46:49;;;;;;;4.63;3.33;;;17.00;99.90;;;;;;4994617;28;20513;-86
2022/05/16 12:49:49;;;;;;;4.87;3.17;;;17.00;99.90;;;;;;4998965;28;20557;-87
2022/05/16 12:52:41;;;;;;;4.20;3.00;;;17.10;99.90;;;;;;4998586;28;20446;-86
2022/05/16 12:55:25;;;;;;;5.00;4.07;;;17.10;99.90;;;;;;4966294;28;20465;-86
2022/05/16 12:58:00;;;;;;;3.53;3.00;;;17.30;99.90;;;;;;4999648;28;20453;-86
2022/05/16 13:00:35;;;;;;;4.87;3.30;;;17.60;99.90;;;;;;4999906;28;20444;-86
2022/05/16 13:03:22;;;;;;;4.90;4.27;;;18.00;99.90;;;;;;4999486;28;20508;-86
2022/05/16 13:05:59;;;;;;;3.40;3.10;;;18.60;99.90;;;;;;4999245;28;20791;-86
2022/05/16 13:08:33;;;;;;;3.87;3.47;;;19.30;99.90;;;;;;4999948;28;20439;-86
2022/05/16 13:11:12;;;;;;;3.67;2.37;;;20.20;99.90;;;;;;5002832;28;21234;-86
2022/05/16 13:14:08;;;;;;;2.60;2.20;;;20.90;99.90;;;;;;5002911;28;20569;-86
2022/05/16 13:16:36;;;;;;;3.90;2.40;;;21.70;99.90;;;;;;4997784;28;20458;-86
2022/05/16 13:19:14;;;;;;;3.03;2.20;;;22.10;99.90;;;;;;4996975;28;20460;-86
2022/05/16 13:21:53;;;;;;;2.17;1.97;;;22.40;99.90;;;;;;4997822;28;20467;-86
2022/05/16 13:24:31;;;;;;;3.10;2.50;;;22.70;99.90;;;;;;4997995;28;20579;-86
2022/05/16 13:30:14;;;;;;;2.60;2.40;;;22.80;99.90;;;;;;4998484;28;20916;-86
2022/05/16 13:32:53;;;;;;;2.50;2.40;;;22.70;99.90;;;;;;5005630;28;20467;-87
2022/05/16 13:36:25;;;;;;;3.77;2.80;;;22.90;99.90;;;;;;5001538;28;20490;-86
2022/05/16 13:39:24;;;;;;;4.53;3.73;;;22.90;99.90;;;;;;4917282;29;20502;-86
2022/05/16 13:53:33;;;;;;;5.60;4.33;;;24.60;99.90;;;;;;4762700;30;20467;-88
2022/05/16 14:00:01;;;;;;;3.37;3.07;;;26.40;99.40;;;;;;4995884;28;20480;-87
2022/05/16 14:03:02;;;;;;;4.70;3.90;;;27.40;96.20;;;;;;5000960;28;20569;-87
2022/05/16 14:05:43;;;;;;;5.47;3.87;;;27.90;96.40;;;;;;4999322;28;20913;-88
2022/05/16 14:08:23;;;;;;;4.40;4.03;;;28.50;95.80;;;;;;4998994;28;20455;-87
2022/05/16 14:10:52;;;;;;;4.00;3.77;;;28.40;93.20;;;;;;4997225;28;20960;-86
2022/05/16 14:13:24;;;;;;;4.23;4.03;;;28.10;94.30;;;;;;4998309;28;20442;-87
2022/05/16 14:15:55;;;;;;;3.70;3.27;;;28.30;93.20;;;;;;4998175;28;20506;-86
2022/05/16 14:18:32;;;;;;;4.03;3.73;;;28.90;91.40;;;;;;4996717;28;20463;-87
2022/05/16 14:21:04;;;;;;;4.60;3.70;;;28.50;91.00;;;;;;4998275;28;20851;-87
2022/05/16 14:23:43;;;;;;;4.33;3.20;;;28.70;92.40;;;;;;5008559;28;20434;-87
2022/05/16 14:26:21;;;;;;;3.37;3.00;;;29.10;88.20;;;;;;4998267;28;20479;-88
2022/05/16 14:28:54;;;;;;;5.73;3.17;;;29.40;87.70;;;;;;4997430;28;20432;-87
2022/05/16 14:31:25;;;;;;;3.30;3.03;;;29.80;83.90;;;;;;4996770;28;20490;-87
2022/05/16 14:33:59;;;;;;;4.50;4.10;;;29.60;84.00;;;;;;4997619;28;20535;-87
2022/05/16 14:36:42;;;;;;;3.50;3.20;;;29.80;82.90;;;;;;4996785;28;20719;-87
2022/05/16 14:39:20;;;;;;;3.80;3.50;;;30.10;84.40;;;;;;4997389;28;20884;-86
2022/05/16 14:41:55;;;;;;;3.47;2.77;;;30.50;80.10;;;;;;4996917;28;20427;-87
2022/05/16 14:44:32;;;;;;;3.90;3.00;;;31.10;78.20;;;;;;4997454;28;20469;-86
2022/05/16 14:47:13;;;;;;;3.03;2.77;;;31.40;78.20;;;;;;4996988;28;20535;-87
2022/05/16 14:49:40;;;;;;;3.40;3.20;;;31.20;73.50;;;;;;4996837;28;20451;-87
2022/05/16 14:52:08;;;;;;;3.27;2.80;;;31.10;75.40;;;;;;4996731;28;20968;-87
2022/05/16 14:54:39;;;;;;;4.17;3.77;;;30.50;73.30;;;;;;4997189;28;20495;-87
2022/05/16 14:57:08;;;;;;;3.50;3.30;;;30.10;74.10;;;;;;4996912;28;20860;-86
2022/05/16 14:59:36;;;;;;;5.03;3.87;;;29.60;74.60;;;;;;4997449;28;20469;-87
2022/05/16 15:04:50;;;;;;;3.47;3.17;;;29.90;76.10;;;;;;4996819;28;20451;-86
2022/05/16 15:07:19;;;;;;;3.27;3.00;;;29.30;75.60;;;;;;4998204;28;20527;-86
2022/05/16 15:09:49;;;;;;;4.63;3.40;;;29.10;76.20;;;;;;4998695;28;20486;-86
2022/05/16 15:12:16;;;;;;;3.60;3.07;;;28.50;77.60;;;;;;5010638;28;20452;-87
2022/05/16 15:14:44;;;;;;;3.47;3.10;;;29.00;78.00;;;;;;4997520;28;20490;-86
2022/05/16 15:17:13;;;;;;;2.87;2.63;;;29.80;79.80;;;;;;4999239;28;20451;-86
2022/05/16 15:19:41;;;;;;;3.10;2.90;;;29.70;75.50;;;;;;4998658;28;20547;-86
2022/05/16 15:22:12;;;;;;;5.17;4.67;;;28.30;77.10;;;;;;4998190;28;20456;-86
2022/05/16 15:24:52;;;;;;;4.20;3.80;;;27.10;81.90;;;;;;4998447;28;20473;-86
2022/05/16 15:27:19;;;;;;;4.47;3.80;;;26.60;83.90;;;;;;4998512;28;20981;-86
2022/05/16 15:29:48;;;;;;;2.67;2.57;;;26.00;86.40;;;;;;4998162;28;20441;-85
2022/05/16 15:32:16;;;;;;;5.77;4.07;;;25.50;88.80;;;;;;4998875;28;20853;-85
2022/05/16 15:34:44;;;;;;;5.73;3.50;;;25.10;90.50;;;;;;4997914;28;20504;-85
2022/05/16 15:37:14;;;;;;;4.13;3.83;;;24.30;91.30;;;;;;4999734;28;20455;-85
2022/05/16 15:39:44;;;;;;;4.00;3.30;;;23.80;92.70;;;;;;5001404;28;20458;-85
2022/05/16 15:42:11;;;;;;;3.20;3.00;;;23.60;93.20;;;;;;5007629;28;20475;-85
2022/05/16 15:44:39;;;;;;;3.60;3.20;;;23.90;94.10;;;;;;5004952;28;20483;-85
2022/05/16 15:47:14;;;;;;;3.40;3.10;;;24.80;92.50;;;;;;5001060;28;20966;-86
2022/05/16 15:49:45;;;;;;;3.17;2.67;;;25.40;92.30;;;;;;5001827;28;20836;-86
2022/05/16 15:52:11;;;;;;;2.93;2.63;;;26.50;90.80;;;;;;5001788;28;20857;-85
2022/05/16 15:54:38;;;;;;;4.23;3.00;;;26.60;88.50;;;;;;5002466;28;20483;-85
2022/05/16 15:57:05;;;;;;;2.80;2.60;;;26.20;88.50;;;;;;5003160;28;20480;-85
2022/05/16 15:59:32;;;;;;;4.43;2.70;;;25.50;89.40;;;;;;5006005;28;20476;-85
2022/05/16 16:02:00;;;;;;;4.73;2.53;;;24.60;90.00;;;;;;5008202;28;20453;-85
2022/05/16 16:09:58;;;;;;;2.57;1.90;;;24.60;90.20;;;;;;5011584;28;20673;-84
2022/05/16 16:12:25;;;;;;;2.80;2.40;;;24.70;90.00;;;;;;5005519;28;20464;-85
2022/05/16 16:14:54;;;;;;;2.53;2.33;;;24.70;89.60;;;;;;5004154;28;20487;-85
2022/05/16 16:17:21;;;;;;;2.80;2.53;;;25.20;88.00;;;;;;5003200;28;20449;-85
2022/05/16 16:19:49;;;;;;;3.43;2.40;;;25.50;84.60;;;;;;5003080;28;20558;-85
2022/05/16 16:22:16;;;;;;;2.63;2.07;;;25.70;85.00;;;;;;5002034;28;20554;-85
2022/05/16 16:24:44;;;;;;;2.37;2.17;;;26.10;84.20;;;;;;5002666;28;20518;-85
2022/05/16 16:27:11;;;;;;;3.40;2.10;;;25.60;83.20;;;;;;5004053;28;20463;-86
2022/05/16 16:29:38;;;;;;;3.87;3.57;;;25.40;85.00;;;;;;5002471;28;20456;-85
2022/05/16 16:32:07;;;;;;;2.70;1.97;;;25.70;83.40;;;;;;5002324;28;20443;-85
2022/05/16 16:34:34;;;;;;;3.63;2.00;;;25.50;82.60;;;;;;5001868;28;20580;-85
2022/05/16 16:37:03;;;;;;;4.33;1.80;;;25.30;83.40;;;;;;5002514;28;20487;-84
2022/05/16 16:39:30;;;;;;;2.10;1.83;;;25.00;83.10;;;;;;5002531;28;20453;-85
2022/05/16 16:41:57;;;;;;;3.30;1.90;;;24.10;85.70;;;;;;5002868;28;20538;-85
2022/05/16 16:44:24;;;;;;;2.57;1.63;;;23.30;87.70;;;;;;5003299;28;20473;-84
2022/05/16 16:46:51;;;;;;;2.13;1.87;;;23.30;89.60;;;;;;5004802;28;20451;-85
2022/05/16 16:49:19;;;;;;;3.60;1.90;;;23.10;89.50;;;;;;5011329;28;20459;-85
2022/05/16 16:57:29;;;;;;;2.27;1.80;;;23.90;89.40;;;;;;5004006;28;20442;-84
2022/05/16 16:59:57;;;;;;;2.20;2.00;;;23.70;87.60;;;;;;5002975;28;20465;-85
2022/05/16 17:02:26;;;;;;;2.40;2.30;;;24.30;86.60;;;;;;5002453;28;20457;-85
2022/05/16 17:04:55;;;;;;;3.47;2.20;;;24.10;86.20;;;;;;5002364;28;20509;-85
2022/05/16 17:07:22;;;;;;;1.97;1.87;;;24.30;86.50;;;;;;5003690;28;20456;-85
2022/05/16 17:09:51;;;;;;;3.50;2.57;;;24.40;86.00;;;;;;5003879;28;20459;-85
2022/05/16 17:12:19;;;;;;;2.50;1.93;;;24.40;85.80;;;;;;5002329;28;20460;-85
2022/05/16 17:14:45;;;;;;;2.10;1.70;;;23.90;87.60;;;;;;5002272;28;20607;-85
2022/05/16 17:17:14;;;;;;;2.53;1.60;;;23.60;87.00;;;;;;5001940;28;20498;-84
2022/05/16 17:19:41;;;;;;;2.90;2.10;;;23.30;89.00;;;;;;5003379;28;20451;-85
2022/05/16 17:22:09;;;;;;;2.93;2.60;;;23.00;89.20;;;;;;5002628;28;20479;-85
2022/05/16 17:24:36;;;;;;;2.30;1.90;;;22.80;90.10;;;;;;5001970;28;20837;-86
2022/05/16 17:27:05;;;;;;;2.60;2.40;;;22.70;90.60;;;;;;5002349;28;20461;-85
2022/05/16 17:29:32;;;;;;;1.97;1.83;;;22.40;90.80;;;;;;5001870;28;20467;-85
2022/05/16 17:31:59;;;;;;;3.70;2.30;;;22.10;91.60;;;;;;5001885;28;20490;-86
2022/05/16 17:34:26;;;;;;;3.60;2.90;;;22.20;91.70;;;;;;5002282;28;21018;-85
2022/05/16 17:36:53;;;;;;;2.20;1.97;;;22.20;91.60;;;;;;5000913;28;20887;-85
2022/05/16 17:39:22;;;;;;;2.90;2.70;;;22.10;91.40;;;;;;5008692;28;20498;-86
2022/05/16 17:41:49;;;;;;;3.20;2.40;;;21.80;90.80;;;;;;5001353;28;20469;-84
2022/05/16 17:44:20;;;;;;;2.50;2.30;;;21.50;90.90;;;;;;5002148;28;20564;-85
2022/05/16 17:46:48;;;;;;;5.90;1.97;;;21.50;91.10;;;;;;5002367;28;20547;-84
2022/05/16 17:49:15;;;;;;;2.37;2.17;;;21.60;91.50;;;;;;5002121;28;20453;-84
2022/05/16 17:51:45;;;;;;;3.07;2.57;;;21.50;91.40;;;;;;5001744;28;20969;-85
2022/05/16 17:54:14;;;;;;;4.33;2.40;;;21.30;91.40;;;;;;5001897;28;20527;-84
2022/05/16 17:56:41;;;;;;;3.40;2.07;;;21.40;91.50;;;;;;5003305;28;20451;-85
2022/05/16 17:59:09;;;;;;;4.23;2.33;;;21.40;90.90;;;;;;5001314;28;20818;-85
2022/05/16 18:01:39;;;;;;;2.63;1.73;;;21.60;91.20;;;;;;4999804;28;20557;-83
2022/05/16 18:04:08;;;;;;;3.40;1.77;;;21.70;90.40;;;;;;5000892;28;20473;-85
2022/05/16 18:06:35;;;;;;;5.70;3.00;;;21.80;89.50;;;;;;5002986;28;20455;-84
2022/05/16 18:09:02;;;;;;;2.40;1.93;;;21.70;89.80;;;;;;5003126;28;20493;-85
2022/05/16 18:14:15;;;;;;;2.10;1.80;;;21.40;89.50;;;;;;5011373;28;20461;-85
2022/05/16 18:16:43;;;;;;;2.33;2.07;;;21.50;90.10;;;;;;5007265;28;20467;-85
2022/05/16 18:19:10;;;;;;;1.87;1.67;;;21.10;89.50;;;;;;5007364;28;20908;-84
2022/05/16 18:21:38;;;;;;;3.37;2.00;;;20.80;89.60;;;;;;5007614;28;20453;-85
2022/05/16 18:24:09;;;;;;;2.60;1.90;;;20.60;90.70;;;;;;5006265;28;20456;-85
2022/05/16 18:26:36;;;;;;;1.90;1.63;;;20.50;90.60;;;;;;5012412;28;20453;-85
2022/05/16 18:29:04;;;;;;;4.10;2.50;;;20.30;91.00;;;;;;5014589;28;20510;-85
2022/05/16 18:31:31;;;;;;;2.47;2.37;;;20.10;91.30;;;;;;5008047;28;20457;-85
2022/05/16 18:34:00;;;;;;;2.83;2.07;;;19.90;91.70;;;;;;5007173;28;20551;-85
2022/05/16 18:36:27;;;;;;;4.73;2.40;;;19.80;92.00;;;;;;5009386;28;20474;-85
2022/05/16 18:38:55;;;;;;;2.10;1.43;;;19.70;92.20;;;;;;5010493;28;20487;-85
2022/05/16 18:41:27;;;;;;;3.80;2.43;;;19.60;92.50;;;;;;5007243;28;20440;-86
2022/05/16 18:52:08;;;;;;;3.77;1.90;;;19.30;93.50;;;;;;5002189;28;20457;-85
2022/05/16 18:54:36;;;;;;;2.20;1.50;;;19.20;93.90;;;;;;5001400;28;20884;-86
2022/05/16 18:57:05;;;;;;;4.17;2.00;;;19.10;94.20;;;;;;4999691;28;20818;-85
2022/05/16 18:59:32;;;;;;;2.53;1.67;;;19.10;94.50;;;;;;4998482;28;20440;-86
2022/05/16 19:01:59;;;;;;;2.60;1.70;;;19.00;94.60;;;;;;4998964;28;20458;-86
2022/05/16 19:04:28;;;;;;;2.37;2.17;;;19.10;94.70;;;;;;4998729;28;20479;-86
2022/05/16 19:06:54;;;;;;;4.23;2.27;;;19.10;94.90;;;;;;4998834;28;20442;-85
2022/05/16 19:09:22;;;;;;;3.17;2.20;;;19.10;95.10;;;;;;4998808;28;20443;-86
2022/05/16 19:11:48;;;;;;;2.73;1.90;;;19.10;95.40;;;;;;4999018;28;20443;-85
2022/05/16 19:14:16;;;;;;;3.57;2.20;;;18.90;95.30;;;;;;4999916;28;20502;-86
2022/05/16 19:16:43;;;;;;;2.20;2.07;;;18.80;95.60;;;;;;5011462;28;20519;-86
2022/05/16 19:19:10;;;;;;;2.40;2.20;;;18.70;96.10;;;;;;5004166;28;20462;-85
2022/05/16 19:21:41;;;;;;;2.97;2.77;;;18.60;96.40;;;;;;5003466;28;20466;-86
2022/05/16 19:24:10;;;;;;;2.30;2.10;;;18.50;96.90;;;;;;5003903;28;20895;-86
2022/05/16 19:26:37;;;;;;;4.90;2.20;;;18.40;97.20;;;;;;5005947;28;20936;-86
2022/05/16 19:32:00;;;;;;;2.77;2.57;;;18.30;97.80;;;;;;5003374;28;20434;-86
2022/05/16 19:34:29;;;;;;;2.50;2.30;;;18.30;98.20;;;;;;5003909;28;20482;-86
2022/05/16 19:36:57;;;;;;;4.07;2.63;;;18.20;98.60;;;;;;5003112;28;20500;-86
2022/05/16 19:39:24;;;;;;;2.60;2.40;;;18.20;98.80;;;;;;5003834;28;20513;-86
2022/05/16 19:41:51;;;;;;;2.53;2.33;;;18.20;99.00;;;;;;5003366;28;20458;-85
2022/05/16 19:44:19;;;;;;;5.50;2.80;;;18.10;99.50;;;;;;5003536;28;20467;-85
2022/05/16 19:46:46;;;;;;;4.70;2.80;;;18.10;99.80;;;;;;5007996;28;20485;-86
2022/05/16 19:49:13;;;;;;;3.20;2.70;;;18.00;99.90;;;;;;5008840;28;20458;-85
2022/05/16 19:51:42;;;;;;;2.50;2.30;;;18.00;99.90;;;;;;5005753;28;20455;-86
2022/05/16 19:54:11;;;;;;;3.20;3.00;;;17.90;99.90;;;;;;5003575;28;20478;-85
2022/05/16 19:56:47;;;;;;;2.63;1.80;;;17.90;99.90;;;;;;5001870;28;20493;-85
2022/05/16 19:59:14;;;;;;;3.83;2.07;;;18.10;99.90;;;;;;5002014;28;20466;-85
2022/05/16 20:01:41;;;;;;;2.67;2.13;;;18.20;99.90;;;;;;5002259;28;20904;-86
2022/05/16 20:04:08;;;;;;;4.80;2.90;;;18.20;99.90;;;;;;5002590;28;20792;-86
2022/05/16 20:06:35;;;;;;;3.10;2.40;;;18.10;99.90;;;;;;5012155;28;20457;-86
2022/05/16 20:09:07;;;;;;;4.27;2.37;;;17.90;99.90;;;;;;5002433;28;20459;-85
2022/05/16 20:11:36;;;;;;;9.73;2.93;;;17.80;99.90;;;;;;5002650;28;20467;-86
2022/05/16 20:14:04;;;;;;;3.70;3.40;;;17.70;99.90;;;;;;5003378;28;20481;-86
2022/05/16 20:16:31;;;;;;;7.87;3.90;;;17.50;99.90;;;;;;5002590;28;20489;-85
2022/05/16 20:18:58;;;;;;;2.37;2.10;;;17.50;99.90;;;;;;5002749;28;20465;-85
2022/05/16 20:21:29;;;;;;;2.97;2.77;;;17.50;99.90;;;;;;5003457;28;20465;-85
2022/05/16 20:26:42;;;;;;;3.03;2.07;;;17.50;99.90;;;;;;5003625;28;20429;-85
2022/05/16 20:29:10;;;;;;;4.07;2.90;;;17.40;99.90;;;;;;5002708;28;20999;-86
2022/05/16 20:31:39;;;;;;;2.70;2.40;;;17.40;99.90;;;;;;5002907;28;20458;-85
2022/05/16 20:34:09;;;;;;;2.57;2.37;;;17.50;99.90;;;;;;5002890;28;20492;-85
2022/05/16 20:36:36;;;;;;;3.60;3.30;;;17.50;99.90;;;;;;5002654;28;20584;-86
2022/05/16 20:39:10;;;;;;;5.47;3.00;;;17.60;99.90;;;;;;5003388;28;20443;-86
2022/05/16 20:41:48;;;;;;;4.10;2.80;;;17.70;99.90;;;;;;5011153;28;20537;-85
2022/05/16 20:44:27;;;;;;;7.37;2.80;;;17.70;99.90;;;;;;5004274;28;20490;-85
2022/05/16 20:47:14;;;;;;;4.43;3.07;;;17.70;99.90;;;;;;5003782;28;20445;-86
2022/05/16 20:56:18;;;;;;;2.97;2.77;;;17.90;99.90;;;;;;5007389;28;21029;-85
2022/05/16 20:59:09;;;;;;;;;;;;;;;;;;;;;
2022/05/16 21:02:10;;;;;;;3.87;2.63;;;17.80;99.90;;;;;;5001832;28;20549;-86
2022/05/16 21:04:54;;;;;;;3.33;3.03;;;17.90;99.90;;;;;;5003358;28;20474;-86
2022/05/16 21:07:32;;;;;;;3.27;2.97;;;17.80;99.90;;;;;;4999904;28;20973;-87
2022/05/16 21:10:10;;;;;;;2.70;2.50;;;17.70;99.90;;;;;;4996503;28;20441;-87
2022/05/16 21:12:47;;;;;;;3.10;2.50;;;17.60;99.90;;;;;;4997110;28;20443;-87
2022/05/16 21:15:27;;;;;;;3.30;3.10;;;17.60;99.90;;;;;;4997531;28;20478;-87
2022/05/16 21:18:02;;;;;;;5.87;3.30;;;17.60;99.90;;;;;;4997320;28;20477;-87
2022/05/16 21:20:35;;;;;;;3.23;2.93;;;17.50;99.90;;;;;;4996830;28;20486;-87
2022/05/16 21:23:16;;;;;;;3.80;3.50;;;17.40;99.90;;;;;;4997484;28;20470;-87
2022/05/16 21:26:02;;;;;;;4.80;4.07;;;17.40;99.90;;;;;;4996551;28;20535;-87
2022/05/16 21:28:40;;;;;;;3.67;3.03;;;17.40;99.90;;;;;;4965684;28;20473;-87
2022/05/16 21:31:27;;;;;;;4.60;3.10;;;17.40;99.90;;;;;;4996441;28;20955;-87
2022/05/16 21:34:07;;;;;;;3.40;3.10;;;17.30;99.90;;;;;;4996450;28;20454;-86
2022/05/16 21:36:45;;;;;;;4.20;3.30;;;17.20;99.90;;;;;;4996544;28;20485;-87
2022/05/16 21:39:25;;;;;;;3.70;3.37;;;17.20;99.90;;;;;;4995486;28;20477;-87
2022/05/16 21:45:23;;;;;;;4.53;4.10;;;17.10;99.90;;;;;;5003943;28;20488;-87
2022/05/16 21:48:11;;;;;;;4.67;3.27;;;17.20;99.90;;;;;;4995888;28;20960;-87
2022/05/16 21:50:50;;;;;;;3.87;3.17;;;17.10;99.90;;;;;;4995719;28;20458;-87
2022/05/16 21:56:47;;;;;;;6.17;3.40;;;16.90;99.90;;;;;;4995567;28;20866;-87
2022/05/16 21:59:32;;;;;;;3.70;3.40;;;17.00;99.90;;;;;;4995973;28;20951;-87
2022/05/16 22:02:23;;;;;;;5.33;4.10;;;16.90;99.90;;;;;;4996591;28;20461;-87
2022/05/16 22:05:27;;;;;;;4.13;3.83;;;16.90;99.90;;;;;;4996088;28;20539;-87
2022/05/16 22:17:44;;;;;;;3.37;3.17;;;16.80;99.90;;;;;;4991920;28;20583;-86
2022/05/16 22:20:45;;;;;;;4.50;4.20;;;16.80;99.90;;;;;;4996861;28;20471;-86
2022/05/16 22:23:54;;;;;;;5.30;4.13;;;16.70;99.90;;;;;;4995843;28;20455;-89
2022/05/16 22:26:58;;;;;;;;;;;;;;;;;;;;;
2022/05/16 22:30:02;;;;;;;3.97;3.60;;;16.60;99.90;;;;;;4998788;28;20444;-88
2022/05/16 22:32:47;;;;;;;5.20;4.20;;;16.60;99.90;;;;;;5002554;28;20456;-87
2022/05/16 22:38:37;;;;;;;5.47;3.90;;;16.50;99.90;;;;;;4997458;28;20452;-87
2022/05/16 22:41:33;;;;;;;4.83;3.87;;;16.50;99.90;;;;;;4998007;28;20479;-87
2022/05/16 22:44:13;;;;;;;5.97;3.77;;;16.40;99.90;;;;;;4996952;28;20457;-88
2022/05/16 22:50:02;;;;;;;5.17;3.63;;;16.40;99.90;;;;;;4977682;28;20621;-88
2022/05/16 22:52:58;;;;;;;;;;;;;;;;;;;;;
2022/05/16 22:55:53;;;;;;;5.57;4.23;;;16.30;99.90;;;;;;5001326;28;20827;-88
2022/05/16 22:58:57;;;;;;;4.30;3.70;;;16.30;99.90;;;;;;5000715;28;20483;-87
2022/05/16 23:05:18;;;;;;;;;;;;;;;;;;;;;
2022/05/16 23:08:52;;;;;;;;;;;;;;;;;;;;;
2022/05/16 23:21:17;;;;;;;;;;;;;;;;;;;;;
2022/05/16 23:24:37;;;;;;;;;;;;;;;;;;;;;
2022/05/16 23:30:55;;;;;;;6.90;4.47;;;15.80;99.90;;;;;;4982053;28;20460;-87
2022/05/16 23:33:47;;;;;;;5.10;4.70;;;15.60;99.90;;;;;;5000578;28;20444;-87
2022/05/16 23:36:29;;;;;;;4.57;4.10;;;15.60;99.90;;;;;;5001076;28;20854;-88
2022/05/16 23:39:19;;;;;;;5.27;4.87;;;15.60;99.90;;;;;;5001486;28;20544;-87
2022/05/16 23:42:08;;;;;;;4.63;3.77;;;15.60;99.90;;;;;;5001160;28;20472;-87
2022/05/16 23:51:28;;;;;;;6.57;3.40;;;15.60;99.90;;;;;;4998818;28;20455;-87
2022/05/16 23:57:35;;;;;;;4.63;4.20;;;15.60;99.90;;;;;;4998445;28;20499;-88
